• Join FlightAware (Why Join?)
  • Login
  • US Flag 
04:59PM EDT


 

Airport Tracker/Info


-or-


 

Live Flight TrackerFlight Track Log ✈ AVN21 ✈ 25-Oct-2013 ✈ YBBN / BNE - NVVV / VLI

Flight Track Log - Related Links

Times and Time Zones

All times are in EDT time to prevent confusion due to time zone crossing. See the AVN21 flight status page for this flight to view local times or setup timezone preferences in your user account.

Time Position Orientation Groundspeed Altitude Reporting Facility
EDT Latitude Longitude Course Direction KTS MPH feet Rate Location/Type
05:22AM -27.3956 153.1223 61° Northeast 110 127  Level FlightAware ADS-B (EKCH / CPH)
05:22AM -27.3940 153.1230 26° Northeast 125 144 720 Level FlightAware
05:22AM -27.3844 153.1287 27° Northeast 165 190 840 Level FlightAware ADS-B (EKCH / CPH)
05:23AM -27.3660 153.1393 211° Southwest 3,100 1,380 Climbing Aus ATC (Calculated)
05:23AM -27.3698 153.1367 26° Northeast 168 193 500 -5,460 Descending FlightAware ADS-B (EKCH / CPH)
05:23AM -27.3569 153.1459 29° Northeast 167 192 1,200 1,620 Climbing FlightAware ADS-B (EKCH / CPH)
05:23AM -27.3461 153.1571 43° Northeast 183 211 1,600 1,200 Climbing FlightAware ADS-B (EKCH / CPH)
05:24AM -27.3321 153.1721 43° Northeast 206 237 2,000 1,620 Climbing FlightAware ADS-B (EKCH / CPH)
05:24AM -27.3189 153.1885 48° Northeast 210 242 2,700 1,980 Climbing FlightAware ADS-B (EKCH / CPH)
05:24AM -27.3141 153.1984 61° Northeast 214 246 3,000 1,380 Climbing FlightAware ADS-B (EKCH / CPH)
05:25AM -27.3076 153.2205 72° East 240 276 3,400 1,320 Climbing FlightAware ADS-B (EKCH / CPH)
05:25AM -27.3006 153.2464 73° East 260 299 3,900 1,800 Climbing FlightAware ADS-B (EKCH / CPH)
05:25AM -27.2936 153.2714 73° East 265 305 4,600 2,100 Climbing FlightAware ADS-B (EKCH / CPH)
05:26AM -27.2858 153.2991 72° East 275 316 5,300 1,920 Climbing FlightAware ADS-B (EKCH / CPH)
05:26AM -27.2778 153.3265 72° East 287 330 5,900 1,620 Climbing FlightAware ADS-B (EKCH / CPH)
05:26AM -27.2694 153.3567 73° East 303 349 6,400 1,320 Climbing FlightAware ADS-B (EKCH / CPH)
05:27AM -27.2621 153.3832 73° East 324 373 6,800 1,020 Climbing FlightAware ADS-B (EKCH / CPH)
05:27AM -27.2515 153.4200 72° East 346 398 7,100 1,620 Climbing FlightAware ADS-B (EKCH / CPH)
05:27AM -27.2414 153.4554 72° East 351 404 7,900 2,220 Climbing FlightAware ADS-B (EKCH / CPH)
05:28AM -27.2317 153.4888 72° East 358 412 8,600 2,700 Climbing FlightAware ADS-B (EKCH / CPH)
05:28AM -27.2222 153.5220 72° East 351 404 9,700 3,120 Climbing FlightAware ADS-B (EKCH / CPH)
05:28AM -27.2066 153.5769 72° East 349 402 11,200 2,700 Climbing FlightAware ADS-B (EKCH / CPH)
05:29AM -27.1796 153.6635 71° East 366 421 13,300 2,280 Climbing FlightAware ADS-B (EKCH / CPH)
05:30AM -27.1528 153.7122 58° Northeast 384 442 14,300 2,280 Climbing FlightAware ADS-B (EKCH / CPH)
05:30AM -27.1221 153.7637 56° Northeast 392 451 15,600 2,700 Climbing FlightAware ADS-B (EKCH / CPH)
05:30AM -27.1145 153.7764 56° Northeast 386 444 16,000 2,640 Climbing FlightAware ADS-B (NZNE)
05:31AM -27.1035 153.7948 56° Northeast 392 451 16,400 2,220 Climbing FlightAware ADS-B (NZNE)
05:31AM -27.0709 153.8487 56° Northeast 406 467 17,600 2,400 Climbing FlightAware ADS-B (EKCH / CPH)
05:32AM -27.0384 153.9029 56° Northeast 414 476 18,900 2,460 Climbing FlightAware ADS-B (EKCH / CPH)
05:32AM -27.0262 153.9233 56° Northeast 416 479 19,300 2,100 Climbing FlightAware ADS-B (NZNE)
05:32AM -27.0055 153.9583 56° Northeast 416 479 20,000 2,040 Climbing FlightAware ADS-B (NZNE)
05:32AM -26.9821 153.9978 56° Northeast 423 487 20,700 1,680 Climbing FlightAware ADS-B (NZNE)
05:33AM -26.9404 154.0678 56° Northeast 447 514 21,700 1,740 Climbing FlightAware ADS-B (EKCH / CPH)
05:34AM -26.8932 154.1466 56° Northeast 458 527 23,000 1,860 Climbing FlightAware ADS-B (EKCH / CPH)
05:34AM -26.8577 154.2060 56° Northeast 465 535 23,900 1,560 Climbing FlightAware ADS-B (EKCH / CPH)
05:35AM -26.8211 154.2668 56° Northeast 475 547 24,600 1,260 Climbing FlightAware ADS-B (EKCH / CPH)
05:35AM -26.7844 154.3275 56° Northeast 487 560 25,200 1,200 Climbing FlightAware ADS-B (EKCH / CPH)
05:36AM -26.7464 154.3903 56° Northeast 496 571 25,800 1,200 Climbing FlightAware ADS-B (EKCH / CPH)
05:36AM -26.7064 154.4563 56° Northeast 506 582 26,400 1,080 Climbing FlightAware ADS-B (EKCH / CPH)
05:37AM -26.6673 154.5211 56° Northeast 518 596 26,900 1,080 Climbing FlightAware ADS-B (EKCH / CPH)
05:37AM -26.6262 154.5887 56° Northeast 521 600 27,500 1,260 Climbing FlightAware ADS-B (EKCH / CPH)
05:38AM -26.5868 154.6537 56° Northeast 525 604 28,200 1,200 Climbing FlightAware ADS-B (EKCH / CPH)
05:38AM -26.5449 154.7227 56° Northeast 528 608 28,700 900 Climbing FlightAware ADS-B (EKCH / CPH)
05:39AM -26.5037 154.7904 56° Northeast 534 615 29,100 720 Climbing FlightAware ADS-B (EKCH / CPH)
05:39AM -26.4473 154.8826 56° Northeast 543 625 29,600 720 Climbing FlightAware ADS-B (EKCH / CPH)
05:40AM -26.4054 154.9513 56° Northeast 547 629 30,000 1,080 Climbing FlightAware ADS-B (EKCH / CPH)
05:41AM -26.3479 155.0453 56° Northeast 543 625 30,900 1,380 Climbing FlightAware ADS-B (EKCH / CPH)
05:41AM -26.2934 155.1342 56° Northeast 538 619 31,900 1,320 Climbing FlightAware ADS-B (EKCH / CPH)
05:42AM -26.2504 155.2041 56° Northeast 535 616 32,500 1,260 Climbing FlightAware ADS-B (EKCH / CPH)
05:42AM -26.2077 155.2734 56° Northeast 532 612 33,200 1,380 Climbing FlightAware ADS-B (EKCH / CPH)
05:43AM -26.1657 155.3416 56° Northeast 526 605 33,900 1,440 Climbing FlightAware ADS-B (EKCH / CPH)
05:43AM -26.1127 155.4273 55° Northeast 518 596 34,900 1,440 Climbing FlightAware ADS-B (EKCH / CPH)
05:44AM -26.0719 155.4934 55° Northeast 510 587 35,600 1,440 Climbing FlightAware ADS-B (EKCH / CPH)
05:44AM -26.0313 155.5591 55° Northeast 501 577 36,400 1,380 Climbing FlightAware ADS-B (EKCH / CPH)
05:45AM -25.9967 155.6149 55° Northeast 496 571 37,000 480 Climbing FlightAware ADS-B (EKCH / CPH)
05:46AM -25.9489 155.6920 55° Northeast 498 573 37,000  Level FlightAware ADS-B (EKCH / CPH)
05:46AM -25.8926 155.7825 55° Northeast 498 573 37,000 120 Level FlightAware ADS-B (EKCH / CPH)
05:47AM -25.8405 155.8686 55° Northeast 491 565 37,200  Climbing Aus ATC (RADAR)
05:47AM -25.8500 155.8500 55° Northeast 498 573 37,000  Descending FlightAware
05:47AM -25.7945 155.9417 55° Northeast 490 564 37,200  Climbing Aus ATC (RADAR)
05:48AM -25.7950 155.9380 55° Northeast 498 573 37,000  Descending FlightAware
05:48AM -25.7355 156.0358 55° Northeast 489 563 37,200  Climbing Aus ATC (RADAR)
05:48AM -25.7540 156.0020 55° Northeast 498 573 37,000  Descending FlightAware
05:49AM -25.7026 156.0874 55° Northeast 488 562 37,200  Climbing Aus ATC (RADAR)
05:49AM -25.7140 156.0660 55° Northeast 498 573 37,000  Descending FlightAware
05:49AM -25.6565 156.1609 55° Northeast 487 560 37,200  Climbing Aus ATC (RADAR)
05:50AM -25.6600 156.1510 55° Northeast 498 573 37,000  Descending FlightAware
05:50AM -25.6034 156.2591 55° Northeast 487 560 37,200  Climbing Aus ATC (RADAR)
05:50AM -25.6200 156.2150 58° Northeast 498 573 37,000  Descending FlightAware
05:50AM -25.5721 156.3119 55° Northeast 487 560 37,200 360 Climbing Aus ATC (RADAR)
05:51AM -25.5358 156.3757 58° Northeast 485 558 37,200 -420 Level Aus ATC (RADAR)
05:51AM -25.5790 156.2790 55° Northeast 498 573 37,000 -360 Descending FlightAware
05:51AM -25.5390 156.3430 55° Northeast 498 573 37,000  Level FlightAware
05:52AM -25.4812 156.4719 55° Northeast 484 557 37,000  Level Aus ATC (RADAR)
05:52AM -25.4980 156.4070 56° Northeast 498 573 37,000  Level FlightAware
05:52AM -25.4380 156.5451 55° Northeast 482 555 37,000  Level Aus ATC (RADAR)
05:53AM -25.3942 156.6173 56° Northeast 480 552 37,000  Level Aus ATC (RADAR)
05:53AM -25.4440 156.4930 56° Northeast 498 573 37,000  Level FlightAware
05:53AM -25.3571 156.6799 56° Northeast 479 551 37,000  Level Aus ATC (RADAR)
05:54AM -25.3900 156.5780 56° Northeast 498 573 37,000  Level FlightAware
05:54AM -25.3144 156.7530 56° Northeast 479 551 37,000  Level Aus ATC (RADAR)
05:54AM -25.3500 156.6420 56° Northeast 498 573 37,000  Level FlightAware
05:55AM -25.2609 156.8484 56° Northeast 478 550 37,000  Level Aus ATC (RADAR)
05:55AM -25.2970 156.7250 56° Northeast 498 573 37,000  Level FlightAware
05:55AM -25.2231 156.9087 56° Northeast 477 549 37,000  Level Aus ATC (RADAR)
05:56AM -25.1764 156.9790 56° Northeast 477 549 37,000  Level Aus ATC (RADAR)
05:56AM -25.2570 156.7890 57° Northeast 498 573 37,000  Level FlightAware
05:56AM -25.2300 156.8320 57° Northeast 498 573 37,000  Level FlightAware
05:56AM -25.1335 157.0520 57° Northeast 476 548 37,000  Level Aus ATC (RADAR)
05:57AM -25.0898 157.1241 57° Northeast 476 548 37,000  Level Aus ATC (RADAR)
05:57AM -25.0469 157.1967 57° Northeast 477 549 37,000  Level Aus ATC (RADAR)
05:58AM -25.0091 157.2580 56° Northeast 477 549 37,000  Level Aus ATC (RADAR)
05:58AM -24.9768 157.3077 54° Northeast 477 549 37,000  Level Aus ATC (RADAR)
06:02AM -24.7279 157.7248 57° Northeast 37,000  Level Aus ATC (Calculated)
06:04AM -24.6014 157.9352 57° Northeast  Level FlightAware Approximate
06:04AM -24.5586 158.0063 56° Northeast 37,000  Level Aus ATC (Calculated)
06:06AM -24.4581 158.1727 56° Northeast  Level FlightAware Approximate
06:07AM -24.3894 158.2860 56° Northeast  Level FlightAware Approximate
06:08AM -24.3207 158.3992 56° Northeast  Level FlightAware Approximate
06:09AM -24.2519 158.5122 56° Northeast  Level FlightAware Approximate
06:10AM -24.1830 158.6252 56° Northeast  Level FlightAware Approximate
06:11AM -24.1140 158.7380 56° Northeast  Level FlightAware Approximate
06:12AM -24.0450 158.8507 56° Northeast  Level FlightAware Approximate
06:13AM -23.9758 158.9633 56° Northeast  Level FlightAware Approximate
06:14AM -23.9066 159.0757 56° Northeast  Level FlightAware Approximate
06:15AM -23.8373 159.1881 56° Northeast  Level FlightAware Approximate
06:16AM -23.7679 159.3003 56° Northeast  Level FlightAware Approximate
06:16AM -23.6318 159.5133 179° South 37,000  Level Aus ATC (Calculated)
06:17AM -23.7557 159.5159 179° South  Level FlightAware Approximate
06:18AM -23.6318 159.5133 359° North  Level FlightAware Approximate
06:18AM -23.4241 159.8450 222° Southwest 37,000  Level Aus ATC (Calculated)
06:19AM -23.7557 159.5160 179° South  Level FlightAware Approximate
06:20AM -23.5178 159.6983 235° Southwest  Level FlightAware Approximate
06:21AM -23.5881 159.5882 235° Southwest  Level FlightAware Approximate
06:22AM -23.6269 159.5275 56° Northeast  Level FlightAware Approximate
06:23AM -23.5575 159.6383 56° Northeast  Level FlightAware Approximate
06:24AM -23.4880 159.7490 56° Northeast  Level FlightAware Approximate
06:25AM -23.4185 159.8595 56° Northeast  Level FlightAware Approximate
06:26AM -23.3488 159.9700 56° Northeast  Level FlightAware Approximate
06:27AM -23.2791 160.0804 55° Northeast  Level FlightAware Approximate
06:27AM -22.7286 160.9399 235° Southwest 37,000  Level Aus ATC (Calculated)
06:28AM -23.2093 160.1906 55° Northeast  Level FlightAware Approximate
06:29AM -22.6243 161.1022 55° Northeast  Level FlightAware Approximate
06:30AM -22.5539 161.2114 55° Northeast  Level FlightAware Approximate
06:31AM -22.4834 161.3205 55° Northeast  Level FlightAware Approximate
06:31AM -22.4359 161.3939 55° Northeast 37,000  Level Aus ATC (Calculated)
06:32AM -22.3654 161.5029 55° Northeast  Level FlightAware Approximate
06:33AM -22.2947 161.6117 55° Northeast  Level FlightAware Approximate
06:34AM -22.2239 161.7204 55° Northeast  Level FlightAware Approximate
06:35AM -22.1531 161.8290 55° Northeast  Level FlightAware Approximate
06:36AM -22.0822 161.9375 55° Northeast  Level FlightAware Approximate
06:37AM -22.0113 162.0459 55° Northeast  Level FlightAware Approximate
06:38AM -21.9402 162.1542 55° Northeast  Level FlightAware Approximate
06:39AM -21.8691 162.2623 55° Northeast  Level FlightAware Approximate
06:40AM -21.7980 162.3704 55° Northeast  Level FlightAware Approximate
06:41AM -21.7267 162.4784 55° Northeast  Level FlightAware Approximate
06:41AM -21.6127 162.6507 55° Northeast 37,000  Level Aus ATC (Calculated)
06:42AM -21.5413 162.7583 55° Northeast  Level FlightAware Approximate
06:43AM -21.4698 162.8659 54° Northeast  Level FlightAware Approximate
06:44AM -21.3982 162.9734 54° Northeast  Level FlightAware Approximate
06:45AM -21.3266 163.0808 54° Northeast  Level FlightAware Approximate
06:46AM -21.3982 162.9734 234° Southwest  Level FlightAware Approximate
06:47AM -21.3266 163.0808 54° Northeast  Level FlightAware Approximate
06:48AM -21.3982 162.9734 234° Southwest  Level FlightAware Approximate
06:49AM -21.3266 163.0808 54° Northeast  Level FlightAware Approximate
06:50AM -21.3982 162.9734 234° Southwest  Level FlightAware Approximate
06:51AM -21.3266 163.0808 54° Northeast  Level FlightAware Approximate
06:52AM -21.3982 162.9734 234° Southwest  Level FlightAware Approximate
06:53AM -21.3266 163.0808 54° Northeast  Level FlightAware Approximate
06:54AM -21.3338 163.0688 54° Northeast  Level FlightAware Approximate
06:55AM -21.2614 163.1755 54° Northeast  Level FlightAware Approximate
06:56AM -21.1888 163.2820 54° Northeast  Level FlightAware Approximate
06:57AM -21.1162 163.3885 54° Northeast  Level FlightAware Approximate
06:58AM -21.0436 163.4948 54° Northeast  Level FlightAware Approximate
06:59AM -20.9708 163.6011 54° Northeast  Level FlightAware Approximate
07:00AM -20.8980 163.7072 54° Northeast  Level FlightAware Approximate
07:01AM -20.8252 163.8133 54° Northeast  Level FlightAware Approximate
07:02AM -20.7522 163.9192 54° Northeast  Level FlightAware Approximate
07:03AM -20.6792 164.0251 54° Northeast  Level FlightAware Approximate
07:04AM -20.6062 164.1308 54° Northeast  Level FlightAware Approximate
07:05AM -20.5331 164.2364 54° Northeast  Level FlightAware Approximate
07:06AM -20.4599 164.3420 54° Northeast  Level FlightAware Approximate
07:07AM -20.3866 164.4474 53° Northeast  Level FlightAware Approximate
07:08AM -20.3133 164.5527 53° Northeast  Level FlightAware Approximate
07:09AM -20.2399 164.6580 53° Northeast  Level FlightAware Approximate
07:10AM -20.1665 164.7631 53° Northeast  Level FlightAware Approximate
07:11AM -20.0930 164.8681 53° Northeast  Level FlightAware Approximate
07:12AM -20.0194 164.9731 53° Northeast  Level FlightAware Approximate
07:13AM -19.9458 165.0779 53° Northeast  Level FlightAware Approximate
07:14AM -19.8721 165.1827 53° Northeast  Level FlightAware Approximate
07:15AM -19.7984 165.2873 53° Northeast  Level FlightAware Approximate
07:16AM -19.7246 165.3918 53° Northeast  Level FlightAware Approximate
07:17AM -19.6507 165.4963 53° Northeast  Level FlightAware Approximate
07:18AM -19.5767 165.6007 53° Northeast  Level FlightAware Approximate
07:19AM -19.5028 165.7049 53° Northeast  Level FlightAware Approximate
07:20AM -19.4287 165.8091 53° Northeast  Level FlightAware Approximate
07:21AM -19.3546 165.9131 53° Northeast  Level FlightAware Approximate
07:22AM -19.2804 166.0171 53° Northeast  Level FlightAware Approximate
07:23AM -19.2062 166.1210 53° Northeast  Level FlightAware Approximate
07:24AM -19.1319 166.2248 53° Northeast  Level FlightAware Approximate
07:25AM -19.0576 166.3285 53° Northeast  Level FlightAware Approximate
07:26AM -18.9832 166.4321 53° Northeast  Level FlightAware Approximate
07:27AM -18.9087 166.5356 53° Northeast  Level FlightAware Approximate
07:28AM -18.8342 166.6390 53° Northeast  Level FlightAware Approximate
07:29AM -18.7596 166.7423 53° Northeast  Level FlightAware Approximate
07:30AM -18.6850 166.8456 53° Northeast  Level FlightAware Approximate
07:31AM -18.6103 166.9487 53° Northeast  Level FlightAware Approximate
07:32AM -18.5356 167.0517 53° Northeast  Level FlightAware Approximate
07:33AM -18.4608 167.1547 53° Northeast  Level FlightAware Approximate
07:34AM -18.3859 167.2576 53° Northeast  Level FlightAware Approximate
07:35AM -18.3110 167.3604 52° Northeast  Level FlightAware Approximate
07:36AM -18.2360 167.4630 52° Northeast  Level FlightAware Approximate
07:37AM -18.1610 167.5656 52° Northeast  Level FlightAware Approximate
07:38AM -18.0860 167.6682 52° Northeast  Level FlightAware Approximate
07:39AM -18.0108 167.7706 52° Northeast  Level FlightAware Approximate
07:40AM -17.9356 167.8729 52° Northeast  Level FlightAware Approximate
07:41AM -17.8604 167.9752 52° Northeast  Level FlightAware Approximate
07:42AM -17.7851 168.0774 52° Northeast  Level FlightAware Approximate
07:43AM -17.7098 168.1794 52° Northeast  Level FlightAware Approximate
07:44AM -17.6621 168.2439 54° Northeast  Level FlightAware Approximate
07:45AM -17.6993 168.3198 54° Northeast  Level Estimated
07:46AM -17.6993 168.3198 54° Northeast  Level Estimated
07:47AM -17.6993 168.3198 54° Northeast  Level Estimated
07:48AM -17.6993 168.3198 54° Northeast  Level Estimated
07:49AM -17.6993 168.3198 54° Northeast  Level Estimated
07:50AM -17.6993 168.3198 54° Northeast  Level Estimated
07:51AM -17.6993 168.3198 54° Northeast  Level Estimated
07:52AM -17.6993 168.3198 54° Northeast  Level Estimated